Time;durP1;ratioP1;P1;durP2;ratioP2;P2;SDS_P1;SDS_P2;PMS_P1;PMS_P2;Temp;Humidity;BMP_temperature;BMP_pressure;BME280_temperature;BME280_humidity;BME280_pressure;Samples;Min_cycle;Max_cycle;Signal;HPM_P1;HPM_P2
2022/03/09 00:00:25;;;;;;;19.63;11.95;;;;;;;1.61;65.32;98707.63;4142486;28;20616;-84
2022/03/09 00:02:29;;;;;;;18.13;11.85;;;;;;;1.58;65.87;98707.69;4140545;28;20207;-84
2022/03/09 00:04:33;;;;;;;18.55;11.82;;;;;;;1.59;66.08;98708.53;4142016;28;20707;-84
2022/03/09 00:06:36;;;;;;;21.20;12.88;;;;;;;1.57;66.29;98718.84;4140189;28;20818;-84
2022/03/09 00:08:39;;;;;;;21.73;12.55;;;;;;;1.57;66.03;98711.13;4141993;28;20757;-85
2022/03/09 00:10:42;;;;;;;19.73;11.65;;;;;;;1.53;66.29;98716.38;4140686;28;20203;-85
2022/03/09 00:12:45;;;;;;;16.58;11.10;;;;;;;1.50;66.31;98709.63;4141877;28;20237;-84
2022/03/09 00:14:48;;;;;;;17.17;11.18;;;;;;;1.47;65.79;98717.38;4119844;28;20213;-85
2022/03/09 00:16:51;;;;;;;18.65;11.85;;;;;;;1.42;66.41;98716.63;4130086;28;20207;-84
2022/03/09 00:18:57;;;;;;;17.25;10.77;;;;;;;1.35;66.54;98719.38;4137109;28;21058;-84
2022/03/09 00:21:03;;;;;;;16.85;10.05;;;;;;;1.30;66.63;98720.38;4137213;28;20243;-84
2022/03/09 00:23:06;;;;;;;18.85;10.38;;;;;;;1.27;67.11;98721.25;4138985;28;20245;-84
2022/03/09 00:25:10;;;;;;;15.73;10.85;;;;;;;1.27;67.31;98728.13;4141403;28;20212;-85
2022/03/09 00:27:13;;;;;;;15.23;10.18;;;;;;;1.28;66.78;98732.38;4140060;28;20333;-85
2022/03/09 00:29:16;;;;;;;14.95;10.50;;;;;;;1.25;67.00;98732.44;4124641;28;20239;-84
2022/03/09 00:31:19;;;;;;;19.95;11.70;;;;;;;1.21;67.01;98730.84;4142298;28;20211;-84
2022/03/09 00:33:22;;;;;;;18.33;10.73;;;;;;;1.20;67.07;98729.97;4155852;28;20207;-86
2022/03/09 00:35:27;;;;;;;19.73;11.68;;;;;;;1.18;66.93;98729.16;4140420;28;21062;-86
2022/03/09 00:37:30;;;;;;;18.77;11.98;;;;;;;1.17;67.22;98732.59;4125449;28;20196;-85
2022/03/09 00:39:33;;;;;;;18.40;11.23;;;;;;;1.16;67.20;98740.38;4124674;28;20204;-85
2022/03/09 00:41:36;;;;;;;17.92;10.88;;;;;;;1.12;67.69;98736.16;4126760;28;20208;-84
2022/03/09 00:43:40;;;;;;;19.38;11.10;;;;;;;1.12;67.52;98731.88;4144339;28;20251;-85
2022/03/09 00:45:43;;;;;;;15.98;10.35;;;;;;;1.14;67.47;98729.25;4141629;28;20215;-84
2022/03/09 00:47:46;;;;;;;16.63;10.98;;;;;;;1.11;67.46;98730.19;4138655;28;20207;-84
2022/03/09 00:49:49;;;;;;;22.67;12.25;;;;;;;1.13;67.55;98727.59;4139383;28;20247;-85
2022/03/09 00:51:54;;;;;;;19.70;12.15;;;;;;;1.13;67.80;98725.88;4125554;28;20603;-84
2022/03/09 00:53:57;;;;;;;20.60;12.55;;;;;;;1.13;67.96;98732.72;4139087;28;20208;-84
2022/03/09 00:56:00;;;;;;;18.95;11.00;;;;;;;1.11;67.37;98714.78;4139877;28;20211;-84
2022/03/09 00:58:04;;;;;;;17.40;10.45;;;;;;;1.05;67.58;98724.31;4125520;28;20755;-86
2022/03/09 01:00:08;;;;;;;16.65;10.52;;;;;;;1.01;67.78;98718.41;4129661;28;20208;-85
2022/03/09 01:02:11;;;;;;;17.23;10.50;;;;;;;1.02;67.41;98730.38;4126638;28;20212;-84
2022/03/09 01:04:16;;;;;;;18.75;10.32;;;;;;;1.01;68.07;98722.72;4141080;28;20228;-84
2022/03/09 01:06:19;;;;;;;17.92;10.95;;;;;;;1.00;68.16;98729.56;4135939;28;20236;-84
2022/03/09 01:08:24;;;;;;;19.88;10.68;;;;;;;0.97;67.71;98726.22;4134340;28;20216;-84
2022/03/09 01:10:27;;;;;;;20.63;11.88;;;;;;;0.96;68.49;98727.06;4140932;28;20258;-84
2022/03/09 01:12:31;;;;;;;17.60;10.93;;;;;;;0.89;67.83;98733.22;4141336;28;20203;-85
2022/03/09 01:14:34;;;;;;;16.85;10.65;;;;;;;0.86;67.58;98740.13;4140988;28;20240;-85
2022/03/09 01:16:37;;;;;;;21.88;11.48;;;;;;;0.84;67.84;98741.88;4124569;28;20650;-84
2022/03/09 01:18:40;;;;;;;19.25;11.50;;;;;;;0.83;68.12;98743.63;4146393;28;20227;-85
2022/03/09 01:20:43;;;;;;;18.70;10.60;;;;;;;0.82;68.38;98741.09;4140388;28;20291;-86
2022/03/09 01:22:46;;;;;;;16.73;10.70;;;;;;;0.78;68.47;98742.84;4138976;28;20208;-84
2022/03/09 01:24:50;;;;;;;15.60;10.80;;;;;;;0.74;68.02;98730.97;4137463;28;20211;-85
2022/03/09 01:26:53;;;;;;;19.17;10.52;;;;;;;0.70;68.12;98729.31;4139094;28;20207;-84
2022/03/09 01:28:56;;;;;;;18.30;10.43;;;;;;;0.67;68.49;98733.69;4134288;28;20242;-84
2022/03/09 01:30:59;;;;;;;19.35;9.93;;;;;;;0.64;68.50;98726.88;4123194;28;20207;-85
2022/03/09 01:33:02;;;;;;;19.92;11.27;;;;;;;0.63;68.58;98722.66;4139298;28;20212;-85
2022/03/09 01:35:07;;;;;;;14.05;8.93;;;;;;;0.63;68.47;98721.78;4138558;28;20227;-84
2022/03/09 01:37:10;;;;;;;17.33;10.13;;;;;;;0.60;68.45;98716.72;4121359;28;22072;-84
2022/03/09 01:39:13;;;;;;;20.42;10.40;;;;;;;0.59;68.58;98712.47;4123608;28;20222;-84
2022/03/09 01:41:18;;;;;;;18.90;9.70;;;;;;;0.56;68.53;98703.09;4138407;28;20215;-85
2022/03/09 01:43:21;;;;;;;16.42;10.18;;;;;;;0.59;68.80;98702.22;4126087;28;20216;-84
2022/03/09 01:45:27;;;;;;;18.63;10.30;;;;;;;0.59;69.06;98705.59;4141349;28;20231;-85
2022/03/09 01:47:30;;;;;;;16.05;10.00;;;;;;;0.58;68.83;98701.34;4120774;28;20216;-84
2022/03/09 01:49:33;;;;;;;16.60;11.07;;;;;;;0.59;69.03;98697.91;4125490;28;20325;-85
2022/03/09 01:51:39;;;;;;;17.67;10.65;;;;;;;0.57;68.86;98699.69;4140057;28;20203;-84
2022/03/09 01:53:42;;;;;;;17.25;9.95;;;;;;;0.55;68.94;98687.75;4137914;28;20223;-84
2022/03/09 01:55:45;;;;;;;19.25;10.55;;;;;;;0.54;69.23;98694.59;4141254;28;20209;-84
2022/03/09 01:57:50;;;;;;;16.50;10.52;;;;;;;0.55;69.41;98693.72;4141288;28;20903;-85
2022/03/09 01:59:54;;;;;;;18.30;10.75;;;;;;;0.54;68.88;98683.47;4136601;28;20199;-84
2022/03/09 02:01:57;;;;;;;19.17;10.90;;;;;;;0.49;69.11;98686.13;4140063;28;20200;-85
2022/03/09 02:04:02;;;;;;;19.10;9.70;;;;;;;0.49;68.89;98690.44;4140540;28;20609;-85
2022/03/09 02:06:05;;;;;;;17.70;10.02;;;;;;;0.47;69.06;98689.63;4140132;28;20235;-85
2022/03/09 02:10:29;;;;;;;15.10;9.65;;;;;;;0.46;69.40;98686.19;4141262;28;20286;-86
2022/03/09 02:12:35;;;;;;;14.65;9.32;;;;;;;0.39;69.18;98678.66;4131545;28;20648;-84
2022/03/09 02:14:42;;;;;;;16.83;9.95;;;;;;;0.41;69.26;98683.75;4141679;28;20200;-86
2022/03/09 02:16:45;;;;;;;16.95;9.60;;;;;;;0.39;69.58;98677.81;4140806;28;20269;-85
2022/03/09 02:18:48;;;;;;;16.52;9.85;;;;;;;0.37;69.66;98677.84;4124552;28;20212;-84
2022/03/09 02:20:53;;;;;;;21.50;10.15;;;;;;;0.34;69.36;98674.50;4143244;28;20636;-85
2022/03/09 02:22:58;;;;;;;16.55;9.57;;;;;;;0.33;69.69;98675.34;4128317;28;20197;-84
2022/03/09 02:25:03;;;;;;;15.10;9.60;;;;;;;0.30;69.79;98681.41;4127071;28;20236;-85
2022/03/09 02:27:06;;;;;;;16.58;10.10;;;;;;;0.30;70.09;98683.09;4128650;28;20243;-84
2022/03/09 02:29:09;;;;;;;16.20;9.80;;;;;;;0.25;69.90;98677.22;4148415;28;20295;-84
2022/03/09 02:31:12;;;;;;;13.93;10.00;;;;;;;0.18;69.87;98683.34;4156619;28;20216;-84
2022/03/09 02:33:15;;;;;;;18.17;10.02;;;;;;;0.17;69.77;98677.38;4140992;28;20254;-85
2022/03/09 02:35:19;;;;;;;16.77;9.27;;;;;;;0.16;70.03;98680.81;4142978;28;20215;-85
2022/03/09 02:37:23;;;;;;;16.65;9.77;;;;;;;0.18;70.34;98686.75;4126035;28;20665;-84
2022/03/09 02:39:27;;;;;;;15.57;9.50;;;;;;;0.19;70.49;98690.16;4141993;28;20624;-85
2022/03/09 02:41:33;;;;;;;16.23;10.05;;;;;;;0.17;70.08;98685.06;4143625;28;20203;-85
2022/03/09 02:43:36;;;;;;;16.77;9.57;;;;;;;0.19;70.20;98695.28;4143910;28;20207;-84
2022/03/09 02:45:39;;;;;;;13.48;8.95;;;;;;;0.19;70.29;98691.00;4126035;28;20224;-85
2022/03/09 02:47:47;;;;;;;14.38;9.07;;;;;;;0.17;70.32;98700.44;4140257;28;20222;-85
2022/03/09 02:49:50;;;;;;;15.57;9.20;;;;;;;0.19;70.45;98697.84;4141207;28;20212;-84
2022/03/09 02:51:53;;;;;;;14.60;9.52;;;;;;;0.17;70.40;98702.19;4142006;28;20652;-84
2022/03/09 02:53:56;;;;;;;15.95;8.63;;;;;;;0.12;70.49;98699.69;4142662;28;20782;-84
2022/03/09 02:56:06;;;;;;;12.70;8.38;;;;;;;0.07;70.60;98695.50;4143157;28;20225;-84
2022/03/09 02:58:10;;;;;;;15.57;9.43;;;;;;;0.01;70.23;98685.38;4140392;28;20207;-84
2022/03/09 03:00:14;;;;;;;17.42;9.23;;;;;;;-0.02;70.36;98687.97;4139168;28;20212;-84
2022/03/09 03:02:17;;;;;;;17.52;10.73;;;;;;;-0.11;69.85;98687.31;4154777;28;20233;-84
2022/03/09 03:04:20;;;;;;;17.13;10.35;;;;;;;-0.15;70.07;98694.22;4139576;28;20199;-85
2022/03/09 03:06:24;;;;;;;15.32;9.40;;;;;;;-0.21;70.36;98696.00;4126153;28;20239;-84
2022/03/09 03:08:27;;;;;;;16.42;9.13;;;;;;;-0.22;70.45;98697.72;4141844;28;20223;-84
2022/03/09 03:10:30;;;;;;;13.00;8.70;;;;;;;-0.22;70.97;98705.41;4139387;28;20812;-86
2022/03/09 03:12:34;;;;;;;14.85;8.90;;;;;;;-0.21;70.72;98699.44;4142863;28;20228;-84
2022/03/09 03:14:37;;;;;;;17.98;8.98;;;;;;;-0.26;70.45;98701.19;4122826;28;20296;-84
2022/03/09 03:16:40;;;;;;;15.98;8.85;;;;;;;-0.29;70.65;98693.56;4127269;28;20575;-84
2022/03/09 03:18:44;;;;;;;14.90;8.93;;;;;;;-0.28;70.96;98694.44;4124537;28;20235;-84
2022/03/09 03:20:48;;;;;;;15.30;8.90;;;;;;;-0.30;71.22;98697.03;4137128;28;20259;-84
2022/03/09 03:22:51;;;;;;;15.88;8.82;;;;;;;-0.30;71.00;98693.59;4142882;28;20294;-85
2022/03/09 03:24:54;;;;;;;12.65;8.40;;;;;;;-0.28;71.38;98702.94;4139408;28;20761;-85
2022/03/09 03:26:57;;;;;;;16.60;9.27;;;;;;;-0.30;70.82;98696.16;4157313;28;20235;-84
2022/03/09 03:29:02;;;;;;;13.65;9.07;;;;;;;-0.36;70.85;98691.13;4126926;28;20603;-85
2022/03/09 03:31:06;;;;;;;13.98;8.70;;;;;;;-0.34;70.80;98692.81;4147789;28;20215;-84
2022/03/09 03:33:09;;;;;;;16.15;9.00;;;;;;;-0.37;70.82;98682.59;4128478;28;20200;-84
2022/03/09 03:35:12;;;;;;;13.57;8.55;;;;;;;-0.39;71.25;98689.47;4128365;28;20619;-84
2022/03/09 03:37:15;;;;;;;14.65;9.25;;;;;;;-0.45;71.17;98688.75;4141006;28;20679;-84
2022/03/09 03:39:18;;;;;;;20.15;10.63;;;;;;;-0.55;70.51;98688.91;4141617;28;20294;-84
2022/03/09 03:41:21;;;;;;;15.68;10.23;;;;;;;-0.63;70.59;98690.72;4142617;28;20208;-84
2022/03/09 03:43:24;;;;;;;15.10;8.80;;;;;;;-0.68;70.92;98692.50;4127621;28;20242;-84
2022/03/09 03:45:31;;;;;;;15.07;8.98;;;;;;;-0.65;71.08;98697.59;4126219;28;20595;-84
2022/03/09 03:47:34;;;;;;;15.00;9.23;;;;;;;-0.62;71.24;98705.22;4144377;28;20207;-84
2022/03/09 03:49:37;;;;;;;16.60;9.43;;;;;;;-0.58;71.56;98699.19;4139844;28;23047;-84
2022/03/09 03:51:40;;;;;;;14.70;8.70;;;;;;;-0.51;71.93;98705.91;4141176;28;20219;-84
2022/03/09 03:53:43;;;;;;;13.57;9.07;;;;;;;-0.46;71.93;98702.41;4138883;28;20216;-84
2022/03/09 03:55:46;;;;;;;12.23;8.70;;;;;;;-0.47;71.68;98700.69;4120794;28;20243;-84
2022/03/09 03:57:49;;;;;;;16.80;8.20;;;;;;;-0.48;71.64;98693.91;4139867;28;20254;-84
2022/03/09 03:59:52;;;;;;;17.48;9.52;;;;;;;-0.45;71.69;98694.69;4125386;28;20200;-84
2022/03/09 04:01:59;;;;;;;14.85;8.93;;;;;;;-0.45;71.79;98697.25;4140995;28;20576;-83
2022/03/09 04:04:02;;;;;;;14.98;8.40;;;;;;;-0.46;71.65;98699.84;4138467;28;20755;-84
2022/03/09 04:06:05;;;;;;;14.23;7.90;;;;;;;-0.45;71.64;98710.06;4128875;28;20231;-84
2022/03/09 04:08:09;;;;;;;14.70;8.43;;;;;;;-0.48;71.67;98701.59;4140766;28;20208;-84
2022/03/09 04:10:12;;;;;;;13.77;8.45;;;;;;;-0.46;71.50;98710.09;4140343;28;20275;-84
2022/03/09 04:12:15;;;;;;;14.60;8.68;;;;;;;-0.47;71.57;98702.44;4142999;28;20683;-83
2022/03/09 04:14:22;;;;;;;13.70;8.15;;;;;;;-0.49;71.25;98699.91;4126992;28;20603;-86
2022/03/09 04:16:25;;;;;;;13.00;7.75;;;;;;;-0.57;70.94;98708.56;4138801;28;20218;-84
2022/03/09 04:18:32;;;;;;;11.90;7.78;;;;;;;-0.62;71.06;98698.38;4141140;28;20852;-83
2022/03/09 04:20:35;;;;;;;13.05;8.77;;;;;;;-0.57;71.42;98693.19;4138449;28;20204;-84
2022/03/09 04:22:41;;;;;;;13.73;8.70;;;;;;;-0.61;71.98;98699.25;4138616;28;20211;-84
2022/03/09 04:24:44;;;;;;;13.50;8.45;;;;;;;-0.60;71.78;98688.97;4125455;28;20266;-83
2022/03/09 04:26:47;;;;;;;12.32;7.90;;;;;;;-0.63;72.03;98693.28;4121797;28;20235;-84
2022/03/09 04:28:50;;;;;;;15.80;9.20;;;;;;;-0.62;71.95;98690.69;4123418;28;20213;-83
2022/03/09 04:30:53;;;;;;;13.75;9.38;;;;;;;-0.62;72.34;98689.84;4139558;28;20203;-84
2022/03/09 04:32:57;;;;;;;11.75;8.32;;;;;;;-0.57;72.28;98700.88;4139810;28;20207;-83
2022/03/09 04:35:02;;;;;;;14.13;8.10;;;;;;;-0.54;72.68;98700.81;4122530;28;20204;-85
2022/03/09 04:37:06;;;;;;;12.45;8.07;;;;;;;-0.51;72.50;98711.88;4143230;28;20668;-84
2022/03/09 04:39:09;;;;;;;15.15;9.43;;;;;;;-0.52;72.61;98706.78;4120688;28;20205;-85
2022/03/09 04:41:12;;;;;;;15.35;9.18;;;;;;;-0.54;72.50;98709.38;4142751;28;20221;-84
2022/03/09 04:43:15;;;;;;;12.43;8.10;;;;;;;-0.53;72.34;98712.75;4142416;28;20734;-83
2022/03/09 04:45:18;;;;;;;14.57;8.70;;;;;;;-0.49;71.69;98699.91;4138748;28;20204;-83
2022/03/09 04:47:21;;;;;;;12.10;8.13;;;;;;;-0.51;72.11;98699.09;4142325;28;20220;-83
2022/03/09 04:49:24;;;;;;;15.90;9.52;;;;;;;-0.52;71.95;98706.78;4125926;28;20722;-85
2022/03/09 04:51:30;;;;;;;14.20;8.20;;;;;;;-0.58;71.85;98707.72;4136765;28;20200;-83
2022/03/09 04:53:33;;;;;;;17.38;9.45;;;;;;;-0.72;70.96;98707.06;4122837;28;20211;-84
2022/03/09 04:55:36;;;;;;;19.95;10.02;;;;;;;-0.85;70.59;98702.16;4126017;28;20624;-83
2022/03/09 04:57:39;;;;;;;20.63;10.43;;;;;;;-0.94;70.73;98701.44;4120475;28;20285;-83
2022/03/09 04:59:43;;;;;;;22.17;10.15;;;;;;;-0.98;71.43;98700.63;4119262;28;20218;-84
2022/03/09 05:01:46;;;;;;;22.00;11.15;;;;;;;-0.98;71.41;98710.84;4124134;28;20203;-85
2022/03/09 05:03:49;;;;;;;22.58;10.82;;;;;;;-0.99;71.78;98709.19;4142092;28;20208;-83
2022/03/09 05:05:52;;;;;;;20.90;9.77;;;;;;;-0.94;71.74;98712.50;4141157;28;20239;-84
2022/03/09 05:07:56;;;;;;;14.77;9.35;;;;;;;-0.94;71.80;98710.78;4139523;28;20211;-83
2022/03/09 05:10:00;;;;;;;16.38;9.25;;;;;;;-0.92;72.07;98715.88;4122242;28;20216;-83
2022/03/09 05:12:03;;;;;;;17.60;11.00;;;;;;;-0.87;72.39;98717.53;4137094;28;20262;-84
2022/03/09 05:14:08;;;;;;;15.63;8.93;;;;;;;-0.82;72.38;98728.53;4123657;28;20216;-84
2022/03/09 05:16:11;;;;;;;18.35;9.30;;;;;;;-0.78;72.49;98740.44;4141646;28;20925;-83
2022/03/09 05:18:15;;;;;;;16.92;9.93;;;;;;;-0.77;72.61;98738.72;4122548;28;20212;-83
2022/03/09 05:20:20;;;;;;;18.50;9.98;;;;;;;-0.75;72.70;98744.66;4120704;28;20267;-84
2022/03/09 05:22:25;;;;;;;19.30;11.23;;;;;;;-0.75;72.31;98735.28;4140305;28;20213;-84
2022/03/09 05:24:29;;;;;;;16.55;10.38;;;;;;;-0.76;72.42;98737.84;4125868;28;20207;-84
2022/03/09 05:26:32;;;;;;;20.73;11.63;;;;;;;-0.79;72.61;98738.75;4140873;28;20286;-84
2022/03/09 05:28:35;;;;;;;14.63;9.50;;;;;;;-0.77;72.43;98731.03;4138200;28;20207;-83
2022/03/09 05:30:38;;;;;;;19.55;10.57;;;;;;;-0.77;72.92;98733.59;4139501;28;20269;-84
2022/03/09 05:32:43;;;;;;;17.00;9.38;;;;;;;-0.80;72.59;98741.31;4138275;28;20200;-83
2022/03/09 05:34:47;;;;;;;18.23;8.85;;;;;;;-0.88;71.75;98743.13;4124203;28;23211;-83
2022/03/09 05:36:50;;;;;;;24.15;9.50;;;;;;;-0.96;71.77;98744.97;4137936;28;20215;-84
2022/03/09 05:38:53;;;;;;;18.67;9.32;;;;;;;-0.94;71.79;98738.09;4138914;28;20246;-85
2022/03/09 05:40:57;;;;;;;16.63;9.27;;;;;;;-0.94;72.17;98740.66;4139073;28;20226;-83
2022/03/09 05:43:00;;;;;;;16.42;9.85;;;;;;;-0.93;72.40;98756.00;4123393;28;20258;-83
2022/03/09 05:45:04;;;;;;;12.90;8.70;;;;;;;-0.86;72.55;98751.63;4140180;28;20552;-83
2022/03/09 05:47:27;;;;;;;13.65;9.40;;;;;;;-0.85;72.63;98758.47;4141176;28;20764;-84
2022/03/09 05:49:30;;;;;;;22.13;9.65;;;;;;;-0.82;72.63;98756.69;4140389;28;20592;-81
2022/03/09 05:51:33;;;;;;;14.90;8.60;;;;;;;-0.79;72.64;98763.50;4143680;28;20199;-84
2022/03/09 05:53:36;;;;;;;15.40;9.48;;;;;;;-0.80;72.34;98754.13;4143097;28;20199;-83
2022/03/09 05:55:39;;;;;;;17.45;9.60;;;;;;;-0.82;72.60;98761.81;4126256;28;20208;-83
2022/03/09 05:57:44;;;;;;;16.77;9.50;;;;;;;-0.82;72.66;98768.66;4156375;28;20337;-83
2022/03/09 05:59:47;;;;;;;17.83;9.43;;;;;;;-0.83;72.64;98774.63;4147361;28;20274;-82
2022/03/09 06:01:50;;;;;;;15.90;9.68;;;;;;;-0.82;72.38;98779.72;4142896;28;20200;-84
2022/03/09 06:03:53;;;;;;;13.43;8.40;;;;;;;-0.79;72.58;98778.84;4143687;28;20233;-86
2022/03/09 06:05:56;;;;;;;16.67;10.23;;;;;;;-0.79;72.43;98782.25;4146823;28;20231;-85
2022/03/09 06:07:59;;;;;;;18.30;9.50;;;;;;;-0.80;72.74;98792.50;4127731;28;20232;-84
2022/03/09 06:10:03;;;;;;;16.38;9.55;;;;;;;-0.72;72.66;98780.44;4143534;28;20208;-85
2022/03/09 06:12:06;;;;;;;22.33;10.60;;;;;;;-0.56;72.74;98785.34;4143849;28;20199;-83
2022/03/09 06:14:11;;;;;;;16.05;10.00;;;;;;;-0.38;72.34;98780.78;4146227;28;20586;-82
2022/03/09 06:16:14;;;;;;;16.70;9.35;;;;;;;-0.22;72.13;98784.84;4127244;28;20215;-80
2022/03/09 06:18:17;;;;;;;21.65;10.32;;;;;;;-0.08;71.45;98782.91;4129250;28;20760;-84
2022/03/09 06:20:22;;;;;;;14.25;9.20;;;;;;;0.06;71.30;98780.94;4143270;28;20200;-81
2022/03/09 06:22:28;;;;;;;15.95;10.20;;;;;;;0.22;71.69;98783.25;4143255;28;20257;-82
2022/03/09 06:24:31;;;;;;;18.63;11.30;;;;;;;0.39;71.66;98780.38;4145273;28;20215;-80
2022/03/09 06:26:34;;;;;;;16.00;10.23;;;;;;;0.53;71.35;98784.41;4143358;28;20203;-82
2022/03/09 06:28:37;;;;;;;16.58;10.65;;;;;;;0.69;70.27;98789.25;4143077;28;20224;-80
2022/03/09 06:30:42;;;;;;;18.35;9.43;;;;;;;0.87;70.21;98803.44;4123594;28;20211;-81
2022/03/09 06:32:46;;;;;;;17.58;10.30;;;;;;;1.02;70.11;98801.41;4128631;28;20251;-80
2022/03/09 06:34:49;;;;;;;17.48;11.57;;;;;;;1.18;69.13;98813.06;4147462;28;20222;-80
2022/03/09 06:36:52;;;;;;;16.73;10.43;;;;;;;1.34;68.68;98809.28;4145739;28;20214;-81
2022/03/09 06:38:56;;;;;;;15.80;10.32;;;;;;;1.46;69.22;98808.19;4144350;28;20203;-81
2022/03/09 06:40:59;;;;;;;13.88;9.30;;;;;;;1.63;68.75;98810.38;4145479;28;20673;-80
2022/03/09 06:43:02;;;;;;;18.38;10.90;;;;;;;1.80;68.19;98814.25;4144174;28;20212;-81
2022/03/09 06:45:06;;;;;;;20.63;10.55;;;;;;;1.96;68.34;98815.59;4140125;28;20211;-81
2022/03/09 06:47:11;;;;;;;16.25;10.48;;;;;;;2.12;67.85;98811.78;4143315;28;20200;-80
2022/03/09 06:49:14;;;;;;;14.95;9.18;;;;;;;2.30;66.83;98808.78;4143717;28;20674;-80
2022/03/09 06:51:17;;;;;;;20.58;11.30;;;;;;;2.47;66.31;98818.63;4142953;28;20259;-81
2022/03/09 06:53:20;;;;;;;15.43;9.27;;;;;;;2.62;65.62;98822.53;4142573;28;20262;-80
2022/03/09 06:55:23;;;;;;;15.35;10.32;;;;;;;2.75;65.19;98824.72;4138660;28;20212;-82
2022/03/09 06:57:26;;;;;;;17.88;11.68;;;;;;;2.90;65.13;98822.63;4141455;28;20262;-81
2022/03/09 06:59:29;;;;;;;16.73;10.57;;;;;;;3.03;64.77;98831.69;4127440;28;20259;-81
2022/03/09 07:01:32;;;;;;;20.05;12.07;;;;;;;3.15;65.68;98839.09;4144463;28;20207;-81
2022/03/09 07:03:37;;;;;;;17.10;11.40;;;;;;;3.26;64.84;98843.94;4140952;28;20203;-80
2022/03/09 07:05:46;;;;;;;19.00;12.32;;;;;;;3.37;64.78;98847.94;4145549;28;20274;-80
2022/03/09 07:07:50;;;;;;;19.95;12.82;;;;;;;3.49;64.39;98842.44;4127677;28;20224;-80
2022/03/09 07:09:53;;;;;;;20.08;12.30;;;;;;;3.62;64.56;98838.59;4145352;28;20204;-81
2022/03/09 07:11:57;;;;;;;21.10;12.43;;;;;;;3.73;64.21;98842.56;4146966;28;20703;-81
2022/03/09 07:14:00;;;;;;;19.15;12.13;;;;;;;3.82;63.61;98832.81;4124123;28;20205;-80
2022/03/09 07:16:03;;;;;;;18.80;11.80;;;;;;;3.98;63.83;98840.94;4142407;28;20220;-80
2022/03/09 07:18:07;;;;;;;21.33;12.60;;;;;;;4.11;63.29;98840.50;4141220;28;20258;-80
2022/03/09 07:20:12;;;;;;;22.67;13.93;;;;;;;4.18;62.76;98834.28;4146666;28;20582;-80
2022/03/09 07:22:15;;;;;;;26.55;14.60;;;;;;;4.32;63.19;98837.25;4144433;28;20235;-80
2022/03/09 07:24:19;;;;;;;19.08;12.93;;;;;;;4.52;62.45;98843.44;4143821;28;20245;-80
2022/03/09 07:26:22;;;;;;;20.60;13.65;;;;;;;4.56;61.65;98846.78;4143400;28;20673;-85
2022/03/09 07:28:25;;;;;;;21.92;13.93;;;;;;;4.68;62.03;98847.22;4142021;28;20262;-86
2022/03/09 07:30:32;;;;;;;23.52;15.55;;;;;;;4.86;62.28;98838.88;4128566;28;20300;-84
2022/03/09 07:32:35;;;;;;;22.52;14.27;;;;;;;5.03;62.50;98839.13;4141908;28;20209;-84
2022/03/09 07:34:54;;;;;;;21.92;13.85;;;;;;;5.18;62.58;98836.84;4148985;28;20210;-83
2022/03/09 07:36:59;;;;;;;21.70;13.82;;;;;;;5.19;59.92;98838.53;4141675;28;20201;-82
2022/03/09 07:39:02;;;;;;;20.95;13.32;;;;;;;5.26;60.07;98833.09;4117307;28;20213;-82
2022/03/09 07:41:22;;;;;;;22.80;15.63;;;;;;;5.49;61.69;98822.78;4134570;28;20672;-83
2022/03/09 07:43:25;;;;;;;40.20;22.77;;;;;;;5.71;62.64;98828.81;4140100;28;20209;-82
2022/03/09 07:45:28;;;;;;;30.98;19.63;;;;;;;5.87;62.10;98820.47;4137493;28;20872;-83
2022/03/09 07:47:31;;;;;;;24.20;15.18;;;;;;;5.95;61.69;98823.59;4140830;28;20209;-82
2022/03/09 07:49:37;;;;;;;18.90;12.50;;;;;;;6.04;60.46;98828.41;4144136;28;20207;-82
2022/03/09 07:51:40;;;;;;;14.27;11.13;;;;;;;6.18;59.13;98831.34;4137978;28;20240;-81
2022/03/09 07:53:45;;;;;;;17.08;10.90;;;;;;;6.31;59.37;98832.50;4144039;28;20215;-82
2022/03/09 07:55:48;;;;;;;18.10;10.43;;;;;;;6.39;60.18;98836.50;4141565;28;20223;-82
2022/03/09 07:57:51;;;;;;;15.70;10.73;;;;;;;6.55;59.57;98837.56;4142968;28;20761;-82
2022/03/09 07:59:54;;;;;;;28.25;12.20;;;;;;;6.72;59.02;98835.09;4145643;28;20202;-83
2022/03/09 08:01:57;;;;;;;15.50;11.63;;;;;;;6.84;58.75;98844.97;4140583;28;20615;-81
2022/03/09 08:04:00;;;;;;;13.52;10.00;;;;;;;6.97;58.48;98849.59;4145166;28;20204;-81
2022/03/09 08:06:04;;;;;;;16.55;10.77;;;;;;;7.08;58.31;98845.66;4142454;28;20238;-84
2022/03/09 08:08:07;;;;;;;16.60;11.20;;;;;;;7.18;58.49;98844.31;4128420;28;20323;-81
2022/03/09 08:10:12;;;;;;;20.98;10.80;;;;;;;7.37;58.95;98837.44;4141654;28;20661;-81
2022/03/09 08:12:15;;;;;;;15.73;11.82;;;;;;;7.43;57.89;98841.50;4144717;28;20207;-83
2022/03/09 08:14:18;;;;;;;17.25;12.38;;;;;;;7.60;58.20;98839.88;4143981;28;20216;-81
2022/03/09 08:16:23;;;;;;;17.58;11.80;;;;;;;7.76;57.96;98840.88;4142056;28;20601;-81
2022/03/09 08:18:26;;;;;;;18.27;13.05;;;;;;;7.72;56.61;98841.91;4140519;28;21562;-83
2022/03/09 08:20:29;;;;;;;16.60;11.23;;;;;;;7.79;57.07;98833.78;4141375;28;20270;-83
2022/03/09 08:22:32;;;;;;;17.85;12.52;;;;;;;7.84;56.72;98841.34;4142705;28;20206;-81
2022/03/09 08:24:35;;;;;;;15.45;11.90;;;;;;;8.01;55.51;98829.25;4136065;28;20660;-81
2022/03/09 08:26:39;;;;;;;20.02;12.50;;;;;;;8.19;58.71;98831.03;4140581;28;20215;-82
2022/03/09 08:28:43;;;;;;;18.25;13.02;;;;;;;8.35;56.18;98835.44;4140843;28;20282;-82
2022/03/09 08:30:48;;;;;;;17.15;12.35;;;;;;;8.53;56.05;98837.16;4142046;28;20250;-81
2022/03/09 08:32:51;;;;;;;16.23;12.00;;;;;;;8.50;54.54;98832.94;4137757;28;20215;-82
2022/03/09 08:34:55;;;;;;;17.70;12.82;;;;;;;8.43;55.17;98838.50;4141156;28;20775;-81
2022/03/09 08:36:58;;;;;;;18.63;12.55;;;;;;;8.56;55.08;98831.81;4139608;28;20208;-81
2022/03/09 08:39:01;;;;;;;21.92;15.35;;;;;;;8.78;55.68;98829.84;4124966;28;20252;-82
2022/03/09 08:41:04;;;;;;;17.55;12.50;;;;;;;8.87;54.32;98824.19;4137850;28;20208;-81
2022/03/09 08:43:11;;;;;;;17.40;11.88;;;;;;;8.95;54.26;98826.31;4140309;28;20200;-81
2022/03/09 08:45:15;;;;;;;16.30;11.68;;;;;;;9.11;55.05;98822.03;4123794;28;20215;-81
2022/03/09 08:47:18;;;;;;;14.38;11.48;;;;;;;9.28;53.23;98821.19;4141747;28;20207;-82
2022/03/09 08:49:21;;;;;;;14.07;10.87;;;;;;;9.34;53.61;98813.91;4140378;28;20219;-82
2022/03/09 08:51:24;;;;;;;16.75;11.30;;;;;;;9.45;54.05;98816.78;4142579;28;21009;-81
2022/03/09 08:53:27;;;;;;;16.48;9.63;;;;;;;9.60;53.25;98818.56;4127361;28;20571;-82
2022/03/09 08:55:30;;;;;;;16.30;11.13;;;;;;;9.78;54.70;98815.00;4117926;28;20216;-82
2022/03/09 08:57:33;;;;;;;14.68;10.15;;;;;;;9.95;52.63;98824.47;4140938;28;21289;-82
2022/03/09 08:59:38;;;;;;;14.73;9.93;;;;;;;10.07;51.38;98825.53;4142609;28;20594;-79
2022/03/09 09:01:41;;;;;;;34.57;25.17;;;;;;;10.17;52.09;98835.38;4139305;28;20653;-79
2022/03/09 09:04:05;;;;;;;21.40;15.47;;;;;;;10.29;51.74;98832.09;4157448;28;20643;-78
2022/03/09 09:06:08;;;;;;;15.73;10.77;;;;;;;10.46;51.63;98821.56;4143906;28;20764;-78
2022/03/09 09:08:11;;;;;;;35.90;23.50;;;;;;;10.63;51.00;98824.06;4139220;28;20702;-77
2022/03/09 09:10:14;;;;;;;19.53;12.07;;;;;;;10.61;50.19;98828.53;4138682;28;20712;-77
2022/03/09 09:12:17;;;;;;;21.43;13.70;;;;;;;10.64;51.44;98823.97;4143321;28;20641;-78
2022/03/09 09:14:21;;;;;;;14.77;10.77;;;;;;;10.78;51.44;98823.19;4127000;28;20675;-78
2022/03/09 09:16:26;;;;;;;13.80;10.50;;;;;;;10.94;49.53;98823.06;4142871;28;20633;-77
2022/03/09 09:18:30;;;;;;;17.30;10.77;;;;;;;11.03;50.40;98827.75;4142542;28;20719;-78
2022/03/09 09:20:35;;;;;;;13.03;10.07;;;;;;;11.07;49.65;98828.41;4139441;28;20620;-78
2022/03/09 09:22:42;;;;;;;14.40;10.97;;;;;;;10.99;50.01;98828.88;4137403;28;20639;-77
2022/03/09 09:25:06;;;;;;;15.23;10.00;;;;;;;11.13;48.93;98828.06;4137206;28;20740;-77
2022/03/09 09:27:09;;;;;;;14.30;10.50;;;;;;;11.24;49.24;98826.47;4139857;28;20637;-77
2022/03/09 09:29:32;;;;;;;15.00;10.60;;;;;;;11.34;49.41;98827.63;4144286;28;20710;-77
2022/03/09 09:31:37;;;;;;;14.47;11.17;;;;;;;11.43;48.32;98829.69;4138252;28;21247;-77
2022/03/09 09:33:41;;;;;;;16.97;11.80;;;;;;;11.50;47.60;98833.63;4141867;28;20679;-77
2022/03/09 09:35:44;;;;;;;17.17;11.17;;;;;;;11.57;48.96;98830.56;4124310;28;20642;-78
2022/03/09 09:37:47;;;;;;;13.90;10.60;;;;;;;11.68;47.71;98835.13;4141755;28;21310;-77